Terminal Aerodrome Forecast
Issued by NWS Atlanta, GA

Home | Current Version | Previous Version | Text Only | Print | Product List | Glossary On
Versions: 1 2 3 4 5 6 7 8 9 10 11 12 13 14 15 16 17 18 19 20 21 22 23 24 25 26 27 28 29 30 31 32 33 34 35 36 37 38 39 40 41 42 43 44 45 46
000
FTUS42 KFFC 260520
TAFATL
TAF
KATL 260520Z 2606/2712 17005KT P6SM VCSH BKN007 BKN015
      TEMPO 2606/2607 6SM -SHRA SCT007 BKN015
     FM260700 17004KT P6SM BKN006 OVC015
     FM261500 20004KT P6SM VCSH SCT015 BKN025
     FM261800 19006KT P6SM SCT025 BKN040 PROB30 2618/2624 VRB15G25KT
      3SM TSRA BR BKN025CB
     FM270300 16004KT P6SM SCT007 BKN040=

USA.gov is the U.S. government's official web portal to all federal, state and local government web resources and services.